createdAt,value
2023-03-12T00:03:32.605Z,384.00
2023-03-12T00:07:33.492Z,382.00
2023-03-12T00:11:33.249Z,379.00
2023-03-12T00:15:33.210Z,377.00
2023-03-12T00:19:33.374Z,377.00
2023-03-12T00:23:33.630Z,376.00
2023-03-12T00:27:33.741Z,377.00
2023-03-12T00:31:34.024Z,380.00
2023-03-12T00:35:34.172Z,380.00
2023-03-12T00:39:34.323Z,378.00
2023-03-12T00:43:34.552Z,372.00
2023-03-12T00:47:35.016Z,373.00
2023-03-12T00:51:35.065Z,370.00
2023-03-12T00:55:34.539Z,371.00
2023-03-12T00:59:34.454Z,374.00
2023-03-12T01:03:34.381Z,370.00
2023-03-12T01:07:34.628Z,373.00
2023-03-12T01:11:34.343Z,370.00
2023-03-12T01:15:34.730Z,368.00
2023-03-12T01:19:34.303Z,368.00
2023-03-12T01:23:34.213Z,371.00
2023-03-12T01:27:34.161Z,372.00
2023-03-12T01:31:34.502Z,372.00
2023-03-12T01:35:34.607Z,371.00
2023-03-12T01:39:34.081Z,376.00
2023-03-12T01:43:34.036Z,375.00
2023-03-12T01:47:34.009Z,374.00
2023-03-12T01:51:34.482Z,367.00
2023-03-12T01:55:33.934Z,367.00
2023-03-12T01:59:34.093Z,366.00
2023-03-12T02:03:34.498Z,369.00
2023-03-12T02:07:34.621Z,374.00
2023-03-12T02:11:34.752Z,365.00
2023-03-12T02:15:35.200Z,363.00
2023-03-12T02:19:35.006Z,366.00
2023-03-12T02:23:35.193Z,368.00
2023-03-12T02:27:35.278Z,368.00
2023-03-12T02:31:35.349Z,368.00
2023-03-12T02:35:35.430Z,368.00
2023-03-12T02:39:35.494Z,367.00
2023-03-12T02:43:36.211Z,366.00
2023-03-12T02:47:35.635Z,368.00
2023-03-12T02:51:35.786Z,364.00
2023-03-12T02:55:35.797Z,365.00
2023-03-12T02:59:36.136Z,365.00
2023-03-12T03:03:35.864Z,362.00
2023-03-12T03:07:36.101Z,358.00
2023-03-12T03:11:36.175Z,361.00
2023-03-12T03:15:35.972Z,361.00
2023-03-12T03:19:35.917Z,366.00
2023-03-12T03:23:35.961Z,364.00
2023-03-12T03:27:35.932Z,360.00
2023-03-12T03:31:36.157Z,359.00
2023-03-12T03:35:36.367Z,358.00
2023-03-12T03:39:36.024Z,362.00
2023-03-12T03:43:35.940Z,360.00
2023-03-12T03:47:35.880Z,368.00
2023-03-12T03:51:35.960Z,367.00
2023-03-12T03:55:35.945Z,366.00
2023-03-12T03:59:36.146Z,361.00
2023-03-12T04:03:36.088Z,362.00
2023-03-12T04:07:36.082Z,365.00
2023-03-12T04:11:35.916Z,363.00
2023-03-12T04:15:35.969Z,357.00
2023-03-12T04:19:35.956Z,358.00
2023-03-12T04:23:35.935Z,362.00
2023-03-12T04:27:35.934Z,366.00
2023-03-12T04:31:36.062Z,366.00
2023-03-12T04:35:36.591Z,368.00
2023-03-12T04:39:36.066Z,368.00
2023-03-12T04:43:36.106Z,367.00
2023-03-12T04:47:35.996Z,362.00
2023-03-12T04:51:36.084Z,362.00
2023-03-12T04:55:36.073Z,356.00
2023-03-12T04:59:36.139Z,363.00
2023-03-12T05:03:36.642Z,365.00
2023-03-12T05:07:36.531Z,365.00
2023-03-12T05:11:39.125Z,362.00
2023-03-12T05:15:36.642Z,366.00
2023-03-12T05:19:36.316Z,363.00
2023-03-12T05:23:36.200Z,364.00
2023-03-12T05:27:36.234Z,361.00
2023-03-12T05:31:36.119Z,364.00
2023-03-12T05:35:36.125Z,362.00
2023-03-12T05:39:36.444Z,362.00
2023-03-12T05:43:36.428Z,364.00
2023-03-12T05:47:36.459Z,364.00
2023-03-12T05:51:36.026Z,360.00
2023-03-12T05:55:36.546Z,359.00
2023-03-12T05:59:36.143Z,359.00
2023-03-12T06:03:37.144Z,354.00
2023-03-12T06:07:35.881Z,353.00
2023-03-12T06:11:36.203Z,357.00
2023-03-12T06:15:36.165Z,364.00
2023-03-12T06:19:35.822Z,361.00
2023-03-12T06:23:35.700Z,361.00
2023-03-12T06:27:35.644Z,360.00
2023-03-12T06:31:38.530Z,364.00
2023-03-12T06:35:35.769Z,363.00
2023-03-12T06:39:35.928Z,361.00
2023-03-12T06:43:35.616Z,354.00
2023-03-12T06:47:35.833Z,353.00
2023-03-12T06:51:35.550Z,350.00
2023-03-12T06:55:35.645Z,354.00
2023-03-12T06:59:35.413Z,354.00
2023-03-12T07:03:35.816Z,351.00
2023-03-12T07:07:35.381Z,353.00
2023-03-12T07:11:35.584Z,356.00
2023-03-12T07:15:35.332Z,353.00
2023-03-12T07:19:35.231Z,358.00
2023-03-12T07:23:35.729Z,359.00
2023-03-12T07:27:35.242Z,362.00
2023-03-12T07:31:35.437Z,364.00
2023-03-12T07:35:35.475Z,361.00
2023-03-12T07:39:35.404Z,363.00
2023-03-12T07:43:35.384Z,360.00
2023-03-12T07:47:35.375Z,360.00
2023-03-12T07:51:34.949Z,362.00
2023-03-12T07:55:35.372Z,362.00
2023-03-12T07:59:34.869Z,364.00
2023-03-12T08:03:35.069Z,363.00
2023-03-12T08:07:34.830Z,356.00
2023-03-12T08:11:34.753Z,354.00
2023-03-12T08:15:34.779Z,354.00
2023-03-12T08:19:34.819Z,351.00
2023-03-12T08:23:35.064Z,353.00
2023-03-12T08:27:35.693Z,347.00
2023-03-12T08:31:35.957Z,346.00
2023-03-12T08:35:35.542Z,347.00
2023-03-12T08:39:36.426Z,351.00
2023-03-12T08:43:36.946Z,352.00
2023-03-12T08:47:35.832Z,352.00
2023-03-12T08:51:36.112Z,354.00
2023-03-12T08:55:35.919Z,350.00
2023-03-12T08:59:36.543Z,348.00
2023-03-12T09:03:36.308Z,350.00
2023-03-12T09:07:36.160Z,350.00
2023-03-12T09:11:35.909Z,352.00
2023-03-12T09:15:35.753Z,352.00
2023-03-12T09:19:35.881Z,356.00
2023-03-12T09:23:35.772Z,354.00
2023-03-12T09:27:35.648Z,352.00
2023-03-12T09:31:36.340Z,355.00
2023-03-12T09:35:36.827Z,357.00
2023-03-12T09:39:36.220Z,351.00
2023-03-12T09:43:36.132Z,351.00
2023-03-12T09:47:36.124Z,348.00
2023-03-12T09:51:36.312Z,349.00
2023-03-12T09:55:36.325Z,348.00
2023-03-12T09:59:36.352Z,343.00
2023-03-12T10:03:36.833Z,341.00
2023-03-12T10:07:37.009Z,343.00
2023-03-12T10:11:36.547Z,345.00
2023-03-12T10:15:36.802Z,343.00
2023-03-12T10:19:36.857Z,348.00
2023-03-12T10:23:37.411Z,345.00
2023-03-12T10:27:38.006Z,344.00
2023-03-12T10:31:37.391Z,351.00
2023-03-12T10:35:37.541Z,350.00
2023-03-12T10:39:37.590Z,349.00
2023-03-12T10:43:37.570Z,347.00
2023-03-12T10:47:37.716Z,349.00
2023-03-12T10:51:38.210Z,346.00
2023-03-12T10:55:37.904Z,347.00
2023-03-12T10:59:38.010Z,347.00
2023-03-12T11:03:38.055Z,352.00
2023-03-12T11:07:38.324Z,349.00
2023-03-12T11:11:38.375Z,347.00
2023-03-12T11:15:38.395Z,347.00
2023-03-12T11:19:38.637Z,352.00
2023-03-12T11:23:38.232Z,352.00
2023-03-12T11:27:38.573Z,352.00
2023-03-12T11:31:38.482Z,354.00
2023-03-12T11:35:39.124Z,350.00
2023-03-12T11:39:38.360Z,347.00
2023-03-12T11:43:43.617Z,345.00
2023-03-12T11:47:39.442Z,342.00
2023-03-12T11:51:38.398Z,345.00
2023-03-12T11:55:38.328Z,348.00
2023-03-12T11:59:38.240Z,349.00
2023-03-12T12:03:39.009Z,353.00
2023-03-12T12:07:38.186Z,349.00
2023-03-12T12:11:38.102Z,345.00
2023-03-12T12:15:39.343Z,346.00
2023-03-12T12:19:38.119Z,341.00
2023-03-12T12:23:37.985Z,341.00
2023-03-12T12:27:38.330Z,344.00
2023-03-12T12:31:38.008Z,341.00
2023-03-12T12:35:38.336Z,341.00
2023-03-12T12:39:38.261Z,343.00
2023-03-12T12:43:37.950Z,344.00
2023-03-12T12:47:38.053Z,344.00
2023-03-12T12:51:38.154Z,340.00
2023-03-12T12:55:38.636Z,339.00
2023-03-12T12:59:39.206Z,343.00
2023-03-12T13:03:38.521Z,341.00
2023-03-12T13:07:38.320Z,349.00
2023-03-12T13:11:38.322Z,347.00
2023-03-12T13:15:38.273Z,350.00
2023-03-12T13:19:38.224Z,350.00
2023-03-12T13:23:38.206Z,346.00
2023-03-12T13:27:38.220Z,345.00
2023-03-12T13:31:38.172Z,345.00
2023-03-12T13:35:39.540Z,345.00
2023-03-12T13:39:38.853Z,347.00
2023-03-12T13:43:38.518Z,346.00
2023-03-12T13:47:38.955Z,343.00
2023-03-12T13:51:38.795Z,345.00
2023-03-12T13:55:38.387Z,349.00
2023-03-12T13:59:38.321Z,349.00
2023-03-12T14:03:40.328Z,346.00
2023-03-12T14:07:38.237Z,346.00
2023-03-12T14:11:38.796Z,346.00
2023-03-12T14:15:39.971Z,343.00
2023-03-12T14:19:38.532Z,339.00
2023-03-12T14:23:38.494Z,341.00
2023-03-12T14:27:38.973Z,346.00
2023-03-12T14:31:39.390Z,342.00
2023-03-12T14:35:39.932Z,342.00
2023-03-12T14:39:38.922Z,343.00
2023-03-12T14:43:38.751Z,342.00
2023-03-12T14:47:38.756Z,342.00
2023-03-12T14:51:38.775Z,344.00
2023-03-12T14:55:38.626Z,346.00
2023-03-12T14:59:39.022Z,345.00
2023-03-12T15:03:38.717Z,348.00
2023-03-12T15:07:39.114Z,346.00
2023-03-12T15:11:38.922Z,347.00
2023-03-12T15:15:39.046Z,349.00
2023-03-12T15:19:39.114Z,352.00
2023-03-12T15:23:39.199Z,347.00
2023-03-12T15:27:39.173Z,350.00
2023-03-12T15:31:39.418Z,351.00
2023-03-12T15:35:39.471Z,355.00
2023-03-12T15:39:39.696Z,351.00
2023-03-12T15:43:39.778Z,350.00
2023-03-12T15:47:39.500Z,351.00
2023-03-12T15:51:39.728Z,349.00
2023-03-12T15:55:39.634Z,348.00
2023-03-12T15:59:39.552Z,350.00
2023-03-12T16:03:39.689Z,347.00
2023-03-12T16:07:39.816Z,355.00
2023-03-12T16:11:39.840Z,356.00
2023-03-12T16:15:40.016Z,353.00
2023-03-12T16:19:40.156Z,352.00
2023-03-12T16:23:40.230Z,353.00
2023-03-12T16:27:40.289Z,352.00
2023-03-12T16:31:40.888Z,353.00
2023-03-12T16:35:41.142Z,346.00
2023-03-12T16:39:40.691Z,350.00
2023-03-12T16:43:41.068Z,354.00
2023-03-12T16:47:41.023Z,353.00
2023-03-12T16:51:41.484Z,350.00
2023-03-12T16:55:41.269Z,354.00
2023-03-12T16:59:41.505Z,354.00
2023-03-12T17:03:41.208Z,351.00
2023-03-12T17:07:41.103Z,358.00
2023-03-12T17:11:41.055Z,352.00
2023-03-12T17:15:41.300Z,352.00
2023-03-12T17:19:43.083Z,357.00
2023-03-12T17:23:41.030Z,355.00
2023-03-12T17:27:40.946Z,353.00
2023-03-12T17:31:41.005Z,353.00
2023-03-12T17:35:41.046Z,349.00
2023-03-12T17:39:41.034Z,347.00
2023-03-12T17:43:41.444Z,349.00
2023-03-12T17:47:41.729Z,347.00
2023-03-12T17:51:41.110Z,343.00
2023-03-12T17:55:41.044Z,340.00
2023-03-12T17:59:41.050Z,339.00
2023-03-12T18:03:41.480Z,340.00
2023-03-12T18:07:41.465Z,342.00
2023-03-12T18:11:41.359Z,344.00
2023-03-12T18:15:41.693Z,349.00
2023-03-12T18:19:41.144Z,347.00
2023-03-12T18:23:41.381Z,347.00
2023-03-12T18:27:41.419Z,349.00
2023-03-12T18:31:41.404Z,345.00
2023-03-12T18:35:41.441Z,341.00
2023-03-12T18:39:41.382Z,342.00
2023-03-12T18:43:41.535Z,341.00
2023-03-12T18:47:41.443Z,341.00
2023-03-12T18:51:41.550Z,343.00
2023-03-12T18:55:41.671Z,339.00
2023-03-12T18:59:41.750Z,341.00
2023-03-12T19:03:41.749Z,343.00
2023-03-12T19:07:41.933Z,339.00
2023-03-12T19:11:42.062Z,341.00
2023-03-12T19:15:41.848Z,341.00
2023-03-12T19:19:41.875Z,343.00
2023-03-12T19:23:41.891Z,341.00
2023-03-12T19:27:42.325Z,341.00
2023-03-12T19:31:42.408Z,341.00
2023-03-12T19:35:42.308Z,340.00
2023-03-12T19:39:42.584Z,338.00
2023-03-12T19:43:42.706Z,342.00
2023-03-12T19:47:42.630Z,337.00
2023-03-12T19:51:42.941Z,339.00
2023-03-12T19:55:43.017Z,340.00
2023-03-12T19:59:43.369Z,339.00
2023-03-12T20:03:44.252Z,341.00
2023-03-12T20:07:43.767Z,340.00
2023-03-12T20:11:43.716Z,343.00
2023-03-12T20:15:43.719Z,341.00
2023-03-12T20:19:44.174Z,345.00
2023-03-12T20:23:44.465Z,342.00
2023-03-12T20:27:44.724Z,338.00
2023-03-12T20:31:45.034Z,336.00
2023-03-12T20:35:44.771Z,334.00
2023-03-12T20:39:45.266Z,334.00
2023-03-12T20:43:45.376Z,336.00
2023-03-12T20:47:45.736Z,340.00
2023-03-12T20:51:45.453Z,338.00
2023-03-12T20:55:45.655Z,336.00
2023-03-12T20:59:45.663Z,338.00
2023-03-12T21:03:45.321Z,337.00
2023-03-12T21:07:45.246Z,336.00
2023-03-12T21:11:45.198Z,335.00
2023-03-12T21:15:45.099Z,337.00
2023-03-12T21:19:45.086Z,332.00
2023-03-12T21:23:45.217Z,342.00
2023-03-12T21:27:51.035Z,341.00
2023-03-12T21:31:46.137Z,345.00
2023-03-12T21:35:45.242Z,340.00
2023-03-12T21:39:46.792Z,342.00
2023-03-12T21:43:46.107Z,348.00
2023-03-12T21:47:45.610Z,346.00
2023-03-12T21:51:45.561Z,350.00
2023-03-12T21:55:45.550Z,348.00
2023-03-12T21:59:45.457Z,348.00
2023-03-12T22:03:45.425Z,347.00
2023-03-12T22:07:45.515Z,345.00
2023-03-12T22:11:45.440Z,343.00
2023-03-12T22:15:45.391Z,343.00
2023-03-12T22:19:45.548Z,339.00
2023-03-12T22:23:45.700Z,336.00
2023-03-12T22:27:45.576Z,337.00
2023-03-12T22:31:45.477Z,336.00
2023-03-12T22:35:45.317Z,341.00
2023-03-12T22:39:45.102Z,336.00
2023-03-12T22:43:45.091Z,334.00
2023-03-12T22:47:45.295Z,337.00
2023-03-12T22:51:45.423Z,337.00
2023-03-12T22:55:45.464Z,333.00
2023-03-12T22:59:44.994Z,340.00
2023-03-12T23:03:44.961Z,334.00
2023-03-12T23:07:45.258Z,334.00
2023-03-12T23:11:45.736Z,340.00
2023-03-12T23:15:44.967Z,339.00
2023-03-12T23:19:44.931Z,339.00
2023-03-12T23:23:45.381Z,333.00
2023-03-12T23:27:45.342Z,328.00
2023-03-12T23:31:45.024Z,332.00
2023-03-12T23:35:45.699Z,337.00
2023-03-12T23:39:54.082Z,331.00
2023-03-12T23:43:46.189Z,331.00
2023-03-12T23:47:44.890Z,332.00
2023-03-12T23:51:44.824Z,330.00
2023-03-12T23:55:44.738Z,330.00
2023-03-12T23:59:44.808Z,327.00
